Time;durP1;ratioP1;P1;durP2;ratioP2;P2;SDS_P1;SDS_P2;PMS_P1;PMS_P2;Temp;Humidity;BMP_temperature;BMP_pressure;BME280_temperature;BME280_humidity;BME280_pressure;Samples;Min_cycle;Max_cycle;Signal;HPM_P1;HPM_P2
2021/03/18 00:01:37;;;;;;;39.95;8.15;;;;;;;;;;4989198;28;20028;-64
2021/03/18 00:04:03;;;;;;;43.97;8.73;;;;;;;;;;4989398;28;20030;-65
2021/03/18 00:06:29;;;;;;;33.30;8.85;;;;;;;;;;4990483;28;20038;-64
2021/03/18 00:08:54;;;;;;;37.47;9.15;;;;;;;;;;4988220;28;20033;-65
2021/03/18 00:11:21;;;;;;;40.30;9.43;;;;;;;;;;4990086;28;20470;-64
2021/03/18 00:13:46;;;;;;;39.15;8.50;;;;;;;;;;4991066;28;20088;-64
2021/03/18 00:16:12;;;;;;;35.60;9.45;;;;;;;;;;4990700;28;20018;-64
2021/03/18 00:18:42;;;;;;;36.50;8.57;;;;;;;;;;4991108;28;20050;-64
2021/03/18 00:21:08;;;;;;;34.45;9.68;;;;;;;;;;4991312;28;20034;-64
2021/03/18 00:23:33;;;;;;;40.22;9.90;;;;;;;;;;4990579;28;20034;-64
2021/03/18 00:25:59;;;;;;;35.30;8.45;;;;;;;;;;4991017;28;20041;-64
2021/03/18 00:28:24;;;;;;;35.22;9.65;;;;;;;;;;4991205;28;20364;-64
2021/03/18 00:30:50;;;;;;;37.13;9.05;;;;;;;;;;4989947;28;20101;-64
2021/03/18 00:33:16;;;;;;;39.88;9.15;;;;;;;;;;4990739;28;20045;-65
2021/03/18 00:35:42;;;;;;;36.80;8.93;;;;;;;;;;4990744;28;20050;-64
2021/03/18 00:38:07;;;;;;;40.95;8.95;;;;;;;;;;4990824;28;20022;-65
2021/03/18 00:40:34;;;;;;;39.10;9.20;;;;;;;;;;4990961;28;20027;-63
2021/03/18 00:43:08;;;;;;;48.33;10.90;;;;;;;;;;4990471;28;20034;-64
2021/03/18 00:45:34;;;;;;;54.88;10.85;;;;;;;;;;4990339;28;20069;-64
2021/03/18 00:48:00;;;;;;;37.50;9.30;;;;;;;;;;4991050;28;20043;-64
2021/03/18 00:50:34;;;;;;;50.70;10.02;;;;;;;;;;4990875;28;20023;-64
2021/03/18 00:52:59;;;;;;;37.88;8.77;;;;;;;;;;4990316;28;20140;-65
2021/03/18 00:55:25;;;;;;;39.17;9.18;;;;;;;;;;4990803;28;20109;-65
2021/03/18 00:57:50;;;;;;;46.80;9.50;;;;;;;;;;4990859;28;20034;-64
2021/03/18 01:00:18;;;;;;;40.88;8.35;;;;;;;;;;4990828;28;20038;-64
2021/03/18 01:02:44;;;;;;;35.38;8.57;;;;;;;;;;4990159;28;20057;-64
2021/03/18 01:05:11;;;;;;;41.17;9.02;;;;;;;;;;4990599;28;20026;-64
2021/03/18 01:07:36;;;;;;;47.10;10.18;;;;;;;;;;4990452;28;20058;-64
2021/03/18 01:10:03;;;;;;;43.10;8.63;;;;;;;;;;4990644;28;20510;-64
2021/03/18 01:12:28;;;;;;;29.80;8.52;;;;;;;;;;4990761;28;20014;-64
2021/03/18 01:14:54;;;;;;;56.03;9.02;;;;;;;;;;4990400;28;20129;-64
2021/03/18 01:17:19;;;;;;;40.47;9.60;;;;;;;;;;4990541;28;20129;-64
2021/03/18 01:19:44;;;;;;;35.42;10.18;;;;;;;;;;4990636;28;20026;-64
2021/03/18 01:22:09;;;;;;;44.08;8.90;;;;;;;;;;4990722;28;20100;-64
2021/03/18 01:24:35;;;;;;;35.70;8.50;;;;;;;;;;4990200;28;20089;-64
2021/03/18 01:27:00;;;;;;;33.33;8.90;;;;;;;;;;4990328;28;20479;-66
2021/03/18 01:29:25;;;;;;;40.92;9.85;;;;;;;;;;4990807;28;20026;-64
2021/03/18 01:31:51;;;;;;;42.13;8.65;;;;;;;;;;4990615;28;20132;-64
2021/03/18 01:34:16;;;;;;;42.22;8.25;;;;;;;;;;4990112;28;20475;-64
2021/03/18 01:36:41;;;;;;;30.85;7.95;;;;;;;;;;4990167;28;20030;-64
2021/03/18 01:39:07;;;;;;;33.80;9.15;;;;;;;;;;4990139;28;20058;-64
2021/03/18 01:41:32;;;;;;;45.78;9.00;;;;;;;;;;4991637;28;20018;-65
2021/03/18 01:43:57;;;;;;;32.38;9.02;;;;;;;;;;4993537;28;20055;-64
2021/03/18 01:46:23;;;;;;;35.40;9.07;;;;;;;;;;4993487;28;20038;-65
2021/03/18 01:48:48;;;;;;;41.05;9.23;;;;;;;;;;4993982;28;20022;-64
2021/03/18 01:51:17;;;;;;;34.35;7.70;;;;;;;;;;4993014;28;20490;-64
2021/03/18 01:53:42;;;;;;;41.28;8.27;;;;;;;;;;4993347;28;20057;-64
2021/03/18 01:56:08;;;;;;;35.92;7.88;;;;;;;;;;4993828;28;20015;-64
2021/03/18 01:58:33;;;;;;;31.65;8.52;;;;;;;;;;4987504;28;20444;-64
2021/03/18 02:01:00;;;;;;;42.72;8.25;;;;;;;;;;4992787;28;20479;-64
2021/03/18 02:03:26;;;;;;;42.92;9.98;;;;;;;;;;4992165;28;20482;-64
2021/03/18 02:05:51;;;;;;;50.70;8.35;;;;;;;;;;4993457;28;20126;-64
2021/03/18 02:08:17;;;;;;;43.83;9.15;;;;;;;;;;4992565;28;20636;-65
2021/03/18 02:10:42;;;;;;;35.63;8.48;;;;;;;;;;4993535;28;20014;-64
2021/03/18 02:13:10;;;;;;;28.05;8.13;;;;;;;;;;4992677;28;20031;-64
2021/03/18 02:15:37;;;;;;;43.50;8.35;;;;;;;;;;4993590;28;20157;-64
2021/03/18 02:18:14;;;;;;;35.58;7.90;;;;;;;;;;4990269;28;20025;-64
2021/03/18 02:20:39;;;;;;;37.58;8.88;;;;;;;;;;4992242;28;20492;-64
2021/03/18 02:23:24;;;;;;;40.17;9.95;;;;;;;;;;4987732;28;20136;-64
2021/03/18 02:26:07;;;;;;;36.35;8.23;;;;;;;;;;4981911;28;20045;-64
2021/03/18 02:28:46;;;;;;;34.60;8.75;;;;;;;;;;4993172;28;20102;-64
2021/03/18 02:31:14;;;;;;;38.75;9.77;;;;;;;;;;4993410;28;20036;-64
2021/03/18 02:33:45;;;;;;;38.40;9.20;;;;;;;;;;4991802;28;20030;-64
2021/03/18 02:36:12;;;;;;;38.75;8.98;;;;;;;;;;4991701;28;20030;-65
2021/03/18 02:38:37;;;;;;;52.33;9.20;;;;;;;;;;4993101;28;20113;-66
2021/03/18 02:41:02;;;;;;;53.53;9.30;;;;;;;;;;4993032;28;20169;-64
2021/03/18 02:43:29;;;;;;;43.30;9.15;;;;;;;;;;4991971;28;20072;-64
2021/03/18 02:45:56;;;;;;;34.90;7.57;;;;;;;;;;4992591;28;20096;-65
2021/03/18 02:48:23;;;;;;;37.10;9.07;;;;;;;;;;4992894;28;20034;-64
2021/03/18 02:50:50;;;;;;;38.40;8.60;;;;;;;;;;4992667;28;20030;-64
2021/03/18 02:53:16;;;;;;;33.20;7.88;;;;;;;;;;4991120;28;20475;-65
2021/03/18 02:55:43;;;;;;;45.20;8.50;;;;;;;;;;4989120;28;20042;-65
2021/03/18 02:58:11;;;;;;;43.78;8.32;;;;;;;;;;4992490;28;20101;-64
2021/03/18 03:00:37;;;;;;;42.03;7.90;;;;;;;;;;4992214;28;20039;-64
2021/03/18 03:03:03;;;;;;;53.47;9.00;;;;;;;;;;4991599;28;20326;-64
2021/03/18 03:05:29;;;;;;;43.10;8.38;;;;;;;;;;4992220;28;20022;-64
2021/03/18 03:07:54;;;;;;;33.00;8.10;;;;;;;;;;4992197;28;20137;-65
2021/03/18 03:10:20;;;;;;;43.95;8.00;;;;;;;;;;4992941;28;20046;-64
2021/03/18 03:12:46;;;;;;;38.17;8.27;;;;;;;;;;4991881;28;20065;-64
2021/03/18 03:15:13;;;;;;;33.08;8.48;;;;;;;;;;4992054;28;20486;-64
2021/03/18 03:17:39;;;;;;;36.78;8.43;;;;;;;;;;4992017;28;20038;-64
2021/03/18 03:20:05;;;;;;;43.15;8.95;;;;;;;;;;4992448;28;20018;-64
2021/03/18 03:22:33;;;;;;;40.72;7.85;;;;;;;;;;4992120;28;20101;-63
2021/03/18 03:24:59;;;;;;;49.45;7.28;;;;;;;;;;4991587;28;20117;-65
2021/03/18 03:27:25;;;;;;;46.33;7.72;;;;;;;;;;4988361;28;20105;-64
2021/03/18 03:29:50;;;;;;;38.35;8.13;;;;;;;;;;4991872;28;20030;-64
2021/03/18 03:32:15;;;;;;;46.25;8.88;;;;;;;;;;4992276;28;20429;-64
2021/03/18 03:34:41;;;;;;;41.85;7.85;;;;;;;;;;4991519;28;20034;-64
2021/03/18 03:37:08;;;;;;;35.38;8.23;;;;;;;;;;4991384;28;20030;-64
2021/03/18 03:39:34;;;;;;;44.20;8.65;;;;;;;;;;4991808;28;20034;-64
2021/03/18 03:41:59;;;;;;;32.63;7.15;;;;;;;;;;4991889;28;20105;-64
2021/03/18 03:44:24;;;;;;;31.15;8.45;;;;;;;;;;4991550;28;20181;-64
2021/03/18 03:46:50;;;;;;;36.63;7.40;;;;;;;;;;4991526;28;20046;-64
2021/03/18 03:49:15;;;;;;;40.42;7.82;;;;;;;;;;4991468;28;20429;-64
2021/03/18 03:51:59;;;;;;;35.78;8.93;;;;;;;;;;4991809;28;20038;-64
2021/03/18 03:54:26;;;;;;;43.03;8.35;;;;;;;;;;4989502;28;20495;-65
2021/03/18 03:57:11;;;;;;;36.13;7.90;;;;;;;;;;4988441;28;20035;-64
2021/03/18 03:59:38;;;;;;;41.50;7.88;;;;;;;;;;4990133;28;20409;-64
2021/03/18 04:02:04;;;;;;;35.85;8.43;;;;;;;;;;4991299;28;20034;-64
2021/03/18 04:04:33;;;;;;;35.38;7.47;;;;;;;;;;4990973;28;20038;-65
2021/03/18 04:07:00;;;;;;;46.38;7.53;;;;;;;;;;4991237;28;20476;-64
2021/03/18 04:09:26;;;;;;;50.65;8.02;;;;;;;;;;4990888;28;20468;-64
2021/03/18 04:11:52;;;;;;;34.40;7.90;;;;;;;;;;4991446;28;20030;-64
2021/03/18 04:14:19;;;;;;;37.95;7.68;;;;;;;;;;4990853;28;20033;-64
2021/03/18 04:16:46;;;;;;;33.83;7.63;;;;;;;;;;4991440;28;20044;-64
2021/03/18 04:19:16;;;;;;;32.75;8.10;;;;;;;;;;4990512;28;20042;-64
2021/03/18 04:21:43;;;;;;;42.13;9.77;;;;;;;;;;4990883;28;20014;-65
2021/03/18 04:24:10;;;;;;;29.92;8.05;;;;;;;;;;4991098;28;20081;-64
2021/03/18 04:26:36;;;;;;;41.40;7.97;;;;;;;;;;4990909;28;20448;-64
2021/03/18 04:29:03;;;;;;;37.95;7.47;;;;;;;;;;4990789;28;20027;-64
2021/03/18 04:31:29;;;;;;;32.80;7.65;;;;;;;;;;4991175;28;20030;-63
2021/03/18 04:33:56;;;;;;;24.58;7.97;;;;;;;;;;4990846;28;20038;-64
2021/03/18 04:36:21;;;;;;;43.17;8.15;;;;;;;;;;4988818;28;20033;-64
2021/03/18 04:38:46;;;;;;;56.13;8.93;;;;;;;;;;4990712;28;20030;-64
2021/03/18 04:41:12;;;;;;;35.78;7.97;;;;;;;;;;4990542;28;20042;-64
2021/03/18 04:43:37;;;;;;;47.25;9.77;;;;;;;;;;4990960;28;20036;-64
2021/03/18 04:46:05;;;;;;;29.33;8.25;;;;;;;;;;4990751;28;20379;-64
2021/03/18 04:48:31;;;;;;;37.42;6.93;;;;;;;;;;4991009;28;20039;-64
2021/03/18 04:50:56;;;;;;;43.42;8.18;;;;;;;;;;4990232;28;20018;-64
2021/03/18 04:53:21;;;;;;;29.70;7.30;;;;;;;;;;4991054;28;20034;-64
2021/03/18 04:55:47;;;;;;;35.72;7.68;;;;;;;;;;4990825;28;20118;-64
2021/03/18 04:58:13;;;;;;;38.70;8.00;;;;;;;;;;4991025;28;20022;-64
2021/03/18 05:00:38;;;;;;;42.75;7.45;;;;;;;;;;4987959;28;20053;-64
2021/03/18 05:03:06;;;;;;;32.55;6.70;;;;;;;;;;4989723;28;20030;-64
2021/03/18 05:05:32;;;;;;;34.33;7.88;;;;;;;;;;4990281;28;20090;-64
2021/03/18 05:07:58;;;;;;;39.83;8.10;;;;;;;;;;4990592;28;20129;-64
2021/03/18 05:10:26;;;;;;;30.60;7.10;;;;;;;;;;4990245;28;20545;-64
2021/03/18 05:12:52;;;;;;;36.25;8.25;;;;;;;;;;4990305;28;20022;-63
2021/03/18 05:15:17;;;;;;;37.55;8.75;;;;;;;;;;4990874;28;20046;-64
2021/03/18 05:17:43;;;;;;;49.38;8.93;;;;;;;;;;4993588;28;20498;-64
2021/03/18 05:20:09;;;;;;;29.67;7.22;;;;;;;;;;4994975;28;20049;-64
2021/03/18 05:22:35;;;;;;;47.92;8.10;;;;;;;;;;4993609;28;20037;-64
2021/03/18 05:25:04;;;;;;;37.53;7.00;;;;;;;;;;4994351;28;20513;-63
2021/03/18 05:27:29;;;;;;;40.35;7.93;;;;;;;;;;4994548;28;20030;-64
2021/03/18 05:29:54;;;;;;;55.28;7.70;;;;;;;;;;4994073;28;20030;-64
2021/03/18 05:32:19;;;;;;;46.08;8.43;;;;;;;;;;4994000;28;20085;-66
2021/03/18 05:34:45;;;;;;;40.88;7.45;;;;;;;;;;4993726;28;20145;-64
2021/03/18 05:37:10;;;;;;;31.58;9.10;;;;;;;;;;4994313;28;20931;-63
2021/03/18 05:39:35;;;;;;;34.58;7.13;;;;;;;;;;4993993;28;20034;-64
2021/03/18 05:42:01;;;;;;;32.53;7.80;;;;;;;;;;4993412;28;20018;-64
2021/03/18 05:44:26;;;;;;;35.30;7.20;;;;;;;;;;4993340;28;20042;-63
2021/03/18 05:46:52;;;;;;;32.92;6.72;;;;;;;;;;4994340;28;20399;-63
2021/03/18 05:49:18;;;;;;;33.65;8.32;;;;;;;;;;4993391;28;20015;-64
2021/03/18 05:51:44;;;;;;;37.22;9.18;;;;;;;;;;4993963;28;20033;-65
2021/03/18 05:54:10;;;;;;;38.38;7.78;;;;;;;;;;4993028;28;20046;-64
2021/03/18 05:56:35;;;;;;;53.50;7.22;;;;;;;;;;4993701;28;20030;-64
2021/03/18 05:59:01;;;;;;;40.30;7.97;;;;;;;;;;4993766;28;20585;-64
2021/03/18 06:01:26;;;;;;;45.72;9.15;;;;;;;;;;4993511;28;20042;-64
2021/03/18 06:03:52;;;;;;;34.40;6.93;;;;;;;;;;4992905;28;20025;-64
2021/03/18 06:06:17;;;;;;;38.28;7.95;;;;;;;;;;4993554;28;20030;-64
2021/03/18 06:08:42;;;;;;;30.27;7.82;;;;;;;;;;4993766;28;20045;-64
2021/03/18 06:11:08;;;;;;;34.20;7.35;;;;;;;;;;4993208;28;20023;-64
2021/03/18 06:13:34;;;;;;;58.67;7.65;;;;;;;;;;4992762;28;20042;-64
2021/03/18 06:16:03;;;;;;;28.75;6.63;;;;;;;;;;4993488;28;20484;-64
2021/03/18 06:18:29;;;;;;;45.75;7.75;;;;;;;;;;4992275;28;20089;-64
2021/03/18 06:20:55;;;;;;;39.80;7.00;;;;;;;;;;4993176;28;20137;-64
2021/03/18 06:23:20;;;;;;;31.13;7.30;;;;;;;;;;4992630;28;20489;-65
2021/03/18 06:25:47;;;;;;;32.03;7.55;;;;;;;;;;4992968;28;20021;-64
2021/03/18 06:28:17;;;;;;;38.38;7.85;;;;;;;;;;4992943;28;20022;-64
2021/03/18 06:30:54;;;;;;;45.85;7.18;;;;;;;;;;4993108;28;20034;-64
2021/03/18 06:33:20;;;;;;;30.02;7.72;;;;;;;;;;4992725;28;20026;-64
2021/03/18 06:35:46;;;;;;;37.75;7.20;;;;;;;;;;4992710;28;20038;-64
2021/03/18 06:38:12;;;;;;;33.33;6.88;;;;;;;;;;4993045;28;20022;-64
2021/03/18 06:40:45;;;;;;;38.63;6.85;;;;;;;;;;4993385;28;20038;-64
2021/03/18 06:43:10;;;;;;;27.10;7.30;;;;;;;;;;4989716;28;20383;-64
2021/03/18 06:45:41;;;;;;;29.30;6.70;;;;;;;;;;4992129;28;20061;-64
2021/03/18 06:48:13;;;;;;;30.40;6.82;;;;;;;;;;4992914;28;20027;-64
2021/03/18 06:50:40;;;;;;;35.95;8.05;;;;;;;;;;4993221;28;20026;-64
2021/03/18 06:53:25;;;;;;;27.15;6.50;;;;;;;;;;4991987;28;20617;-64
2021/03/18 06:55:50;;;;;;;36.95;6.28;;;;;;;;;;4991970;28;20027;-64
2021/03/18 06:58:19;;;;;;;34.28;6.68;;;;;;;;;;4991883;28;20073;-64
2021/03/18 07:00:49;;;;;;;27.60;5.72;;;;;;;;;;4992191;28;20033;-65
2021/03/18 07:03:25;;;;;;;28.10;5.47;;;;;;;;;;4991960;28;20383;-64
2021/03/18 07:05:50;;;;;;;28.02;5.20;;;;;;;;;;4991738;28;20507;-66
2021/03/18 07:08:23;;;;;;;29.20;5.10;;;;;;;;;;4992213;28;20026;-64
2021/03/18 07:10:48;;;;;;;23.02;5.43;;;;;;;;;;4992689;28;20054;-65
2021/03/18 07:13:21;;;;;;;27.90;5.78;;;;;;;;;;4990962;28;20061;-65
2021/03/18 07:15:48;;;;;;;25.55;5.28;;;;;;;;;;4987066;28;20037;-65
2021/03/18 07:18:13;;;;;;;33.20;5.43;;;;;;;;;;4989675;28;20038;-65
2021/03/18 07:20:53;;;;;;;17.98;4.45;;;;;;;;;;4992101;28;20370;-65
2021/03/18 07:23:18;;;;;;;34.80;5.55;;;;;;;;;;4991675;28;20415;-65
2021/03/18 07:25:45;;;;;;;21.77;4.82;;;;;;;;;;4992218;28;20057;-65
2021/03/18 07:28:10;;;;;;;21.13;4.30;;;;;;;;;;4991265;28;20360;-65
2021/03/18 07:30:37;;;;;;;27.50;4.35;;;;;;;;;;4992160;28;20092;-65
2021/03/18 07:33:03;;;;;;;17.98;3.78;;;;;;;;;;4991670;28;20034;-65
2021/03/18 07:35:29;;;;;;;16.05;4.00;;;;;;;;;;4991936;28;20038;-65
2021/03/18 07:37:55;;;;;;;20.85;4.53;;;;;;;;;;4991203;28;20034;-65
2021/03/18 07:40:22;;;;;;;19.77;5.53;;;;;;;;;;4991375;28;20118;-65
2021/03/18 07:42:48;;;;;;;33.70;6.63;;;;;;;;;;4991567;28;20077;-65
2021/03/18 07:45:16;;;;;;;23.02;4.70;;;;;;;;;;4991655;28;20054;-65
2021/03/18 07:47:42;;;;;;;23.23;4.60;;;;;;;;;;4991133;28;20041;-66
2021/03/18 07:50:09;;;;;;;13.40;3.97;;;;;;;;;;4991641;28;20014;-65
2021/03/18 07:52:36;;;;;;;15.82;4.28;;;;;;;;;;4991591;28;20037;-65
2021/03/18 07:55:02;;;;;;;19.08;4.97;;;;;;;;;;4991630;28;20133;-65
2021/03/18 07:57:38;;;;;;;27.73;7.97;;;;;;;;;;4990920;28;20022;-66
2021/03/18 08:00:07;;;;;;;30.92;10.32;;;;;;;;;;4991405;28;20157;-66
2021/03/18 08:02:33;;;;;;;38.05;10.18;;;;;;;;;;4991094;28;20034;-66
2021/03/18 08:04:58;;;;;;;30.25;10.20;;;;;;;;;;4990859;28;20056;-66
2021/03/18 08:07:50;;;;;;;29.42;8.82;;;;;;;;;;4991355;28;20394;-66
2021/03/18 08:10:21;;;;;;;23.42;7.82;;;;;;;;;;4991004;28;20053;-66
2021/03/18 08:12:46;;;;;;;17.83;6.97;;;;;;;;;;4986001;28;20468;-65
2021/03/18 08:15:24;;;;;;;26.75;7.95;;;;;;;;;;4988194;28;20093;-66
2021/03/18 08:17:50;;;;;;;25.00;7.28;;;;;;;;;;4988402;28;20073;-67
2021/03/18 08:20:41;;;;;;;28.33;7.50;;;;;;;;;;4988367;28;20042;-66
2021/03/18 08:23:22;;;;;;;22.70;8.05;;;;;;;;;;4986760;28;20042;-65
2021/03/18 08:25:47;;;;;;;24.02;7.00;;;;;;;;;;4988713;28;20440;-66
2021/03/18 08:28:45;;;;;;;22.52;6.65;;;;;;;;;;4988574;28;20145;-65
2021/03/18 08:31:17;;;;;;;22.20;6.38;;;;;;;;;;4987577;28;20133;-65
2021/03/18 08:33:45;;;;;;;19.13;6.97;;;;;;;;;;4983472;28;20034;-65
2021/03/18 08:36:26;;;;;;;20.58;8.20;;;;;;;;;;4988720;28;20030;-65
2021/03/18 08:38:53;;;;;;;22.42;5.72;;;;;;;;;;4986869;28;20038;-65
2021/03/18 08:41:25;;;;;;;25.25;8.07;;;;;;;;;;4987395;28;20401;-65
2021/03/18 08:44:09;;;;;;;17.10;6.70;;;;;;;;;;4987503;28;20047;-65
2021/03/18 08:46:48;;;;;;;27.77;9.55;;;;;;;;;;4988122;28;20047;-67
2021/03/18 08:49:31;;;;;;;20.90;9.73;;;;;;;;;;4988001;28;20026;-65
2021/03/18 08:51:58;;;;;;;24.92;8.00;;;;;;;;;;4989804;28;20034;-65
2021/03/18 08:54:38;;;;;;;22.88;7.40;;;;;;;;;;4991779;28;20046;-65
2021/03/18 08:57:04;;;;;;;23.42;5.82;;;;;;;;;;4992199;28;20065;-65
2021/03/18 08:59:30;;;;;;;20.05;6.20;;;;;;;;;;4991741;28;20442;-66
2021/03/18 09:02:09;;;;;;;22.90;5.90;;;;;;;;;;4984076;28;20030;-65
2021/03/18 09:04:35;;;;;;;17.55;5.72;;;;;;;;;;4990287;28;20145;-66
2021/03/18 09:07:03;;;;;;;34.17;10.20;;;;;;;;;;4989155;28;20113;-66
2021/03/18 09:09:29;;;;;;;24.30;5.85;;;;;;;;;;4990807;28;20018;-66
2021/03/18 09:11:54;;;;;;;15.70;6.03;;;;;;;;;;4980036;28;20077;-65
2021/03/18 09:14:19;;;;;;;22.67;6.30;;;;;;;;;;4991182;28;20380;-66
2021/03/18 09:16:45;;;;;;;21.27;5.85;;;;;;;;;;4989723;28;20014;-66
2021/03/18 09:19:10;;;;;;;22.55;4.80;;;;;;;;;;4991381;28;20426;-66
2021/03/18 09:21:36;;;;;;;20.38;5.32;;;;;;;;;;4991298;28;20026;-66
2021/03/18 09:24:04;;;;;;;16.88;3.58;;;;;;;;;;4990705;28;20030;-65
2021/03/18 09:26:29;;;;;;;19.08;4.05;;;;;;;;;;4990720;28;20033;-66
2021/03/18 09:28:55;;;;;;;19.33;4.55;;;;;;;;;;4991286;28;20035;-65
2021/03/18 09:31:21;;;;;;;16.08;2.75;;;;;;;;;;4989312;28;20026;-65
2021/03/18 09:33:51;;;;;;;13.45;2.92;;;;;;;;;;4990976;28;20065;-65
2021/03/18 09:36:17;;;;;;;11.15;2.83;;;;;;;;;;4981898;28;20065;-66
2021/03/18 09:38:53;;;;;;;16.15;3.17;;;;;;;;;;4985719;28;20530;-66
2021/03/18 09:41:22;;;;;;;12.35;2.88;;;;;;;;;;4983071;28;20080;-66
2021/03/18 09:43:48;;;;;;;13.27;3.17;;;;;;;;;;4985067;28;20062;-65
2021/03/18 09:46:13;;;;;;;18.58;2.80;;;;;;;;;;4984074;28;20077;-67
2021/03/18 09:48:39;;;;;;;19.80;3.72;;;;;;;;;;4984244;28;20452;-66
2021/03/18 09:51:04;;;;;;;16.98;3.63;;;;;;;;;;4970248;28;20045;-66
2021/03/18 09:53:29;;;;;;;16.83;3.30;;;;;;;;;;4973091;28;20419;-66
2021/03/18 09:56:00;;;;;;;15.70;3.55;;;;;;;;;;4985539;28;20513;-65
2021/03/18 09:58:26;;;;;;;15.02;3.15;;;;;;;;;;4985563;28;20073;-66
2021/03/18 10:00:52;;;;;;;13.13;3.58;;;;;;;;;;4979066;28;20023;-66
2021/03/18 10:03:17;;;;;;;15.10;3.13;;;;;;;;;;4983844;28;20030;-66
2021/03/18 10:05:42;;;;;;;15.32;3.33;;;;;;;;;;4978513;28;20129;-66
2021/03/18 10:08:07;;;;;;;17.17;3.38;;;;;;;;;;4983990;28;20065;-66
2021/03/18 10:10:33;;;;;;;13.02;3.53;;;;;;;;;;4983941;28;20057;-66
2021/03/18 10:12:59;;;;;;;15.52;2.83;;;;;;;;;;4982870;28;20120;-65
2021/03/18 10:15:25;;;;;;;21.70;3.50;;;;;;;;;;4983979;28;20034;-67
2021/03/18 10:17:52;;;;;;;17.25;2.47;;;;;;;;;;4983943;28;20058;-66
2021/03/18 10:20:22;;;;;;;14.18;3.05;;;;;;;;;;4983895;28;20034;-66
2021/03/18 10:23:07;;;;;;;16.42;2.72;;;;;;;;;;4983860;28;20018;-65
2021/03/18 10:25:34;;;;;;;14.10;3.08;;;;;;;;;;4979358;28;20045;-65
2021/03/18 10:27:59;;;;;;;15.77;4.05;;;;;;;;;;4984148;28;20031;-66
2021/03/18 10:30:25;;;;;;;16.08;2.92;;;;;;;;;;4985633;28;20034;-66
2021/03/18 10:33:10;;;;;;;10.13;2.42;;;;;;;;;;4985536;28;20041;-66
2021/03/18 10:35:38;;;;;;;12.27;2.92;;;;;;;;;;4986007;28;20042;-66
2021/03/18 10:38:04;;;;;;;15.35;2.47;;;;;;;;;;4987004;28;20088;-67
2021/03/18 10:40:36;;;;;;;13.13;3.83;;;;;;;;;;4985057;28;20043;-66
2021/03/18 10:43:01;;;;;;;15.13;3.00;;;;;;;;;;4986336;28;20546;-66
2021/03/18 10:45:26;;;;;;;17.20;2.88;;;;;;;;;;4963030;28;653375;-66
2021/03/18 10:47:53;;;;;;;17.52;2.83;;;;;;;;;;4987452;28;20058;-66
2021/03/18 10:50:23;;;;;;;16.58;3.28;;;;;;;;;;4985336;28;20026;-66
2021/03/18 10:52:52;;;;;;;13.25;3.55;;;;;;;;;;4984654;28;20621;-66
2021/03/18 10:55:21;;;;;;;18.40;3.28;;;;;;;;;;4985953;28;20097;-67
2021/03/18 10:57:52;;;;;;;13.13;2.60;;;;;;;;;;4986039;28;20026;-66
2021/03/18 11:00:19;;;;;;;14.70;2.97;;;;;;;;;;4984109;28;20037;-66
2021/03/18 11:02:55;;;;;;;13.60;2.50;;;;;;;;;;4986636;28;20750;-66
2021/03/18 11:05:27;;;;;;;12.43;3.40;;;;;;;;;;4986895;28;20047;-66
2021/03/18 11:07:59;;;;;;;15.60;3.00;;;;;;;;;;4981553;28;20038;-66
2021/03/18 11:10:44;;;;;;;16.92;3.60;;;;;;;;;;4983062;28;20097;-66
2021/03/18 11:13:12;;;;;;;12.85;2.90;;;;;;;;;;4984922;28;20373;-66
2021/03/18 11:15:44;;;;;;;17.05;3.65;;;;;;;;;;4983923;28;20049;-66
2021/03/18 11:18:10;;;;;;;13.63;2.90;;;;;;;;;;4985195;28;20092;-66
2021/03/18 11:20:39;;;;;;;18.35;3.70;;;;;;;;;;4986248;28;20038;-66
2021/03/18 11:23:05;;;;;;;15.23;2.60;;;;;;;;;;4986374;28;20029;-66
2021/03/18 11:25:30;;;;;;;11.20;3.13;;;;;;;;;;4984995;28;20680;-66
2021/03/18 11:27:56;;;;;;;15.48;3.20;;;;;;;;;;4986764;28;20031;-66
2021/03/18 11:30:32;;;;;;;15.65;2.35;;;;;;;;;;4978678;28;20030;-66
2021/03/18 11:33:20;;;;;;;16.77;2.60;;;;;;;;;;4984508;28;20046;-66
2021/03/18 11:35:47;;;;;;;15.10;2.85;;;;;;;;;;4985861;28;20534;-66
2021/03/18 11:38:12;;;;;;;13.20;2.83;;;;;;;;;;4985327;28;20592;-66
2021/03/18 11:40:38;;;;;;;13.95;2.85;;;;;;;;;;4982292;28;20022;-66
2021/03/18 11:43:04;;;;;;;13.35;3.33;;;;;;;;;;4984102;28;20018;-66
2021/03/18 11:45:29;;;;;;;8.30;2.40;;;;;;;;;;4983505;28;20085;-66
2021/03/18 11:47:55;;;;;;;15.27;3.83;;;;;;;;;;4984722;28;20157;-66
2021/03/18 11:50:20;;;;;;;11.70;3.03;;;;;;;;;;4983230;28;20034;-66
2021/03/18 11:52:46;;;;;;;9.63;2.13;;;;;;;;;;4984363;28;21014;-67
2021/03/18 11:55:11;;;;;;;14.18;2.80;;;;;;;;;;4985561;28;20092;-66
2021/03/18 11:57:36;;;;;;;13.02;2.40;;;;;;;;;;4984764;28;20018;-66
2021/03/18 12:00:03;;;;;;;13.38;4.53;;;;;;;;;;4983087;28;20089;-66
2021/03/18 12:02:28;;;;;;;11.25;2.83;;;;;;;;;;4983132;28;20503;-66
2021/03/18 12:04:53;;;;;;;16.80;3.10;;;;;;;;;;4983941;28;20101;-67
2021/03/18 12:07:18;;;;;;;13.18;2.63;;;;;;;;;;4982247;28;20557;-66
2021/03/18 12:09:44;;;;;;;9.45;2.33;;;;;;;;;;4983237;28;20041;-67
2021/03/18 12:12:09;;;;;;;13.43;2.90;;;;;;;;;;4984131;28;20543;-66
2021/03/18 12:14:34;;;;;;;9.15;2.65;;;;;;;;;;4981655;28;20562;-66
2021/03/18 12:16:59;;;;;;;21.65;3.10;;;;;;;;;;4983864;28;20030;-66
2021/03/18 12:19:25;;;;;;;13.02;3.05;;;;;;;;;;4983065;28;20019;-66
2021/03/18 12:21:50;;;;;;;11.68;2.70;;;;;;;;;;4981543;28;20647;-66
2021/03/18 12:24:15;;;;;;;18.95;5.38;;;;;;;;;;4984063;28;20018;-66
2021/03/18 12:26:41;;;;;;;17.25;2.75;;;;;;;;;;4986959;28;20039;-66
2021/03/18 12:29:06;;;;;;;19.25;3.50;;;;;;;;;;4987670;28;20506;-66
2021/03/18 12:31:31;;;;;;;12.00;2.95;;;;;;;;;;4985352;28;20037;-66
2021/03/18 12:33:56;;;;;;;15.18;3.28;;;;;;;;;;4984153;28;20061;-66
2021/03/18 12:36:22;;;;;;;14.73;3.47;;;;;;;;;;4985706;28;20034;-67
2021/03/18 12:38:47;;;;;;;18.40;3.20;;;;;;;;;;4987051;28;20030;-66
2021/03/18 12:41:12;;;;;;;13.40;2.75;;;;;;;;;;4986664;28;20037;-66
2021/03/18 12:43:38;;;;;;;8.75;3.00;;;;;;;;;;4986879;28;20048;-66
2021/03/18 12:46:03;;;;;;;10.63;2.83;;;;;;;;;;4984931;28;20097;-66
2021/03/18 12:48:28;;;;;;;14.50;3.42;;;;;;;;;;4986845;28;20029;-66
2021/03/18 12:50:53;;;;;;;17.52;3.72;;;;;;;;;;4987604;28;20450;-66
2021/03/18 12:53:19;;;;;;;12.98;3.08;;;;;;;;;;4984371;28;20041;-66
2021/03/18 12:55:48;;;;;;;12.32;3.25;;;;;;;;;;4985382;28;20041;-66
2021/03/18 12:58:14;;;;;;;15.70;3.38;;;;;;;;;;4984414;28;20546;-66
2021/03/18 13:00:39;;;;;;;12.32;3.30;;;;;;;;;;4986256;28;20057;-66
2021/03/18 13:03:04;;;;;;;10.05;3.17;;;;;;;;;;4987796;28;20045;-66
2021/03/18 13:05:30;;;;;;;10.38;2.70;;;;;;;;;;4985754;28;20038;-66
2021/03/18 13:07:55;;;;;;;10.63;2.90;;;;;;;;;;4984080;28;20109;-66
2021/03/18 13:10:20;;;;;;;15.60;3.50;;;;;;;;;;4986604;28;20133;-66
2021/03/18 13:12:46;;;;;;;15.38;4.10;;;;;;;;;;4988181;28;20108;-66
2021/03/18 13:15:12;;;;;;;14.57;4.85;;;;;;;;;;4986807;28;20068;-66
2021/03/18 13:17:37;;;;;;;15.18;4.18;;;;;;;;;;4985032;28;20053;-66
2021/03/18 13:20:04;;;;;;;9.27;3.40;;;;;;;;;;4985400;28;20042;-67
2021/03/18 13:22:29;;;;;;;13.48;3.33;;;;;;;;;;4984987;28;20038;-66
2021/03/18 13:24:54;;;;;;;9.75;3.17;;;;;;;;;;4986281;28;20447;-66
2021/03/18 13:27:20;;;;;;;14.35;3.25;;;;;;;;;;4984872;28;20046;-66
2021/03/18 13:29:45;;;;;;;12.20;3.10;;;;;;;;;;4986558;28;20033;-66
2021/03/18 13:32:10;;;;;;;13.98;2.72;;;;;;;;;;4985677;28;20387;-66
2021/03/18 13:34:35;;;;;;;17.95;2.92;;;;;;;;;;4984633;28;20427;-66
2021/03/18 13:37:01;;;;;;;13.52;2.80;;;;;;;;;;4984777;28;20124;-66
2021/03/18 13:39:26;;;;;;;12.63;2.45;;;;;;;;;;4988093;28;20459;-66
2021/03/18 13:41:51;;;;;;;13.63;3.08;;;;;;;;;;4987719;28;20500;-66
2021/03/18 13:44:17;;;;;;;10.18;2.53;;;;;;;;;;4988275;28;20151;-66
2021/03/18 13:46:43;;;;;;;10.50;2.60;;;;;;;;;;4987207;28;20121;-66
2021/03/18 13:49:08;;;;;;;9.93;2.85;;;;;;;;;;4987795;28;20113;-66
2021/03/18 13:51:33;;;;;;;9.40;2.28;;;;;;;;;;4988647;28;20097;-66
2021/03/18 13:53:58;;;;;;;10.35;2.10;;;;;;;;;;4989346;28;20030;-67
2021/03/18 13:56:24;;;;;;;7.95;2.47;;;;;;;;;;4987617;28;20042;-66
2021/03/18 13:58:49;;;;;;;9.88;2.35;;;;;;;;;;4988346;28;20014;-66
2021/03/18 14:01:15;;;;;;;11.52;2.22;;;;;;;;;;4987735;28;20391;-66
2021/03/18 14:03:41;;;;;;;12.70;2.50;;;;;;;;;;4987462;28;20037;-66
2021/03/18 14:06:06;;;;;;;14.30;2.55;;;;;;;;;;4987518;28;20386;-66
2021/03/18 14:08:32;;;;;;;11.85;2.97;;;;;;;;;;4988144;28;20083;-66
2021/03/18 14:10:57;;;;;;;12.18;2.72;;;;;;;;;;4991224;28;20034;-66
2021/03/18 14:13:22;;;;;;;13.82;3.17;;;;;;;;;;4988455;28;20383;-66
2021/03/18 14:15:48;;;;;;;24.15;3.53;;;;;;;;;;4988963;28;20026;-67
2021/03/18 14:18:14;;;;;;;13.52;2.35;;;;;;;;;;4987751;28;20035;-67
2021/03/18 14:20:41;;;;;;;11.18;2.65;;;;;;;;;;4988837;28;20068;-67
2021/03/18 14:23:07;;;;;;;14.35;2.80;;;;;;;;;;4984740;28;20101;-66
2021/03/18 14:25:32;;;;;;;14.73;3.65;;;;;;;;;;4988469;28;20531;-66
2021/03/18 14:27:58;;;;;;;10.85;2.58;;;;;;;;;;4987253;28;20026;-67
2021/03/18 14:30:24;;;;;;;13.05;2.50;;;;;;;;;;4989211;28;20036;-66
2021/03/18 14:32:49;;;;;;;14.05;3.42;;;;;;;;;;4987554;28;20368;-66